createdAt,value
2022-12-16T00:00:55.276Z,1011.66
2022-12-16T00:01:55.324Z,1011.7
2022-12-16T00:02:55.276Z,1011.7
2022-12-16T00:03:55.558Z,1011.68
2022-12-16T00:04:55.237Z,1011.7
2022-12-16T00:05:55.236Z,1011.67
2022-12-16T00:06:55.251Z,1011.63
2022-12-16T00:07:55.248Z,1011.6
2022-12-16T00:08:55.236Z,1011.6
2022-12-16T00:09:55.252Z,1011.57
2022-12-16T00:10:55.245Z,1011.55
2022-12-16T00:11:55.241Z,1011.53
2022-12-16T00:12:55.267Z,1011.52
2022-12-16T00:13:55.288Z,1011.48
2022-12-16T00:14:55.246Z,1011.51
2022-12-16T00:15:55.300Z,1011.48
2022-12-16T00:16:55.236Z,1011.44
2022-12-16T00:17:55.263Z,1011.42
2022-12-16T00:18:55.246Z,1011.42
2022-12-16T00:19:55.248Z,1011.45
2022-12-16T00:20:55.262Z,1011.48
2022-12-16T00:21:55.258Z,1011.47
2022-12-16T00:22:55.296Z,1011.45
2022-12-16T00:23:55.238Z,1011.49
2022-12-16T00:24:55.244Z,1011.47
2022-12-16T00:25:55.333Z,1011.49
2022-12-16T00:26:55.263Z,1011.47
2022-12-16T00:28:00.302Z,1011.49
2022-12-16T00:28:55.244Z,1011.43
2022-12-16T00:29:55.242Z,1011.38
2022-12-16T00:30:55.438Z,1011.38
2022-12-16T00:31:55.308Z,1011.37
2022-12-16T00:32:55.262Z,1011.41
2022-12-16T00:33:55.246Z,1011.37
2022-12-16T00:34:55.242Z,1011.41
2022-12-16T00:35:55.244Z,1011.43
2022-12-16T00:36:55.243Z,1011.38
2022-12-16T00:37:55.262Z,1011.3
2022-12-16T00:38:55.245Z,1011.31
2022-12-16T00:39:55.240Z,1011.3
2022-12-16T00:40:55.243Z,1011.27
2022-12-16T00:41:55.244Z,1011.26
2022-12-16T00:42:55.270Z,1011.21
2022-12-16T00:43:55.258Z,1011.3
2022-12-16T00:44:55.240Z,1011.27
2022-12-16T00:45:55.364Z,1011.26
2022-12-16T00:46:55.236Z,1011.27
2022-12-16T00:47:55.272Z,1011.22
2022-12-16T00:48:55.332Z,1011.22
2022-12-16T00:49:55.239Z,1011.24
2022-12-16T00:50:55.562Z,1011.26
2022-12-16T00:51:55.319Z,1011.36
2022-12-16T00:52:55.263Z,1011.3
2022-12-16T00:53:55.248Z,1011.32
2022-12-16T00:54:55.247Z,1011.35
2022-12-16T00:55:55.242Z,1011.36
2022-12-16T00:56:55.239Z,1011.36
2022-12-16T00:57:55.266Z,1011.33
2022-12-16T00:58:55.247Z,1011.36
2022-12-16T00:59:55.246Z,1011.35
2022-12-16T01:00:55.294Z,1011.35
2022-12-16T01:01:55.495Z,1011.35
2022-12-16T01:02:55.434Z,1011.37
2022-12-16T01:03:55.405Z,1011.32
2022-12-16T01:04:55.248Z,1011.36
2022-12-16T01:05:55.244Z,1011.34
2022-12-16T01:06:55.241Z,1011.31
2022-12-16T01:07:55.263Z,1011.26
2022-12-16T01:08:55.241Z,1011.26
2022-12-16T01:09:55.241Z,1011.26
2022-12-16T01:10:55.620Z,1011.27
2022-12-16T01:11:55.251Z,1011.27
2022-12-16T01:12:55.280Z,1011.29
2022-12-16T01:13:55.399Z,1011.31
2022-12-16T01:14:55.253Z,1011.29
2022-12-16T01:15:55.253Z,1011.26
2022-12-16T01:16:55.297Z,1011.27
2022-12-16T01:17:55.395Z,1011.32
2022-12-16T01:18:55.387Z,1011.36
2022-12-16T01:19:55.251Z,1011.38
2022-12-16T01:20:55.251Z,1011.35
2022-12-16T01:21:55.237Z,1011.37
2022-12-16T01:22:55.250Z,1011.38
2022-12-16T01:23:55.245Z,1011.37
2022-12-16T01:24:55.253Z,1011.39
2022-12-16T01:25:55.243Z,1011.32
2022-12-16T01:26:55.249Z,1011.29
2022-12-16T01:27:55.315Z,1011.29
2022-12-16T01:28:55.279Z,1011.26
2022-12-16T01:29:55.359Z,1011.26
2022-12-16T01:30:55.242Z,1011.26
2022-12-16T01:31:55.434Z,1011.31
2022-12-16T01:32:55.255Z,1011.33
2022-12-16T01:33:55.238Z,1011.36
2022-12-16T01:34:55.838Z,1011.3
2022-12-16T01:35:56.307Z,1011.25
2022-12-16T01:36:55.249Z,1011.24
2022-12-16T01:37:55.264Z,1011.28
2022-12-16T01:38:55.254Z,1011.29
2022-12-16T01:39:55.242Z,1011.27
2022-12-16T01:40:55.339Z,1011.3
2022-12-16T01:41:55.239Z,1011.29
2022-12-16T01:42:55.271Z,1011.28
2022-12-16T01:43:55.248Z,1011.26
2022-12-16T01:44:55.290Z,1011.27
2022-12-16T01:45:55.290Z,1011.22
2022-12-16T01:46:55.240Z,1011.28
2022-12-16T01:47:55.272Z,1011.22
2022-12-16T01:48:55.247Z,1011.21
2022-12-16T01:49:55.241Z,1011.18
2022-12-16T01:50:55.240Z,1011.18
2022-12-16T01:51:55.580Z,1011.22
2022-12-16T01:52:55.265Z,1011.16
2022-12-16T01:53:55.570Z,1011.14
2022-12-16T01:54:55.248Z,1011.18
2022-12-16T01:55:55.241Z,1011.17
2022-12-16T01:56:55.446Z,1011.12
2022-12-16T01:57:55.323Z,1011.09
2022-12-16T01:58:55.325Z,1011.09
2022-12-16T01:59:55.246Z,1011.12
2022-12-16T02:00:55.275Z,1011.12
2022-12-16T02:01:55.458Z,1011.13
2022-12-16T02:02:55.409Z,1011.11
2022-12-16T02:03:55.247Z,1011.09
2022-12-16T02:04:55.243Z,1011.12
2022-12-16T02:05:55.245Z,1011.13
2022-12-16T02:06:55.243Z,1011.12
2022-12-16T02:07:55.261Z,1011.14
2022-12-16T02:08:55.254Z,1011.14
2022-12-16T02:09:55.254Z,1011.12
2022-12-16T02:10:55.266Z,1011.17
2022-12-16T02:11:55.493Z,1011.14
2022-12-16T02:12:55.267Z,1011.14
2022-12-16T02:13:55.241Z,1011.1
2022-12-16T02:14:55.248Z,1011.09
2022-12-16T02:15:55.268Z,1011.1
2022-12-16T02:16:55.341Z,1011.04
2022-12-16T02:17:55.262Z,1011.05
2022-12-16T02:18:55.242Z,1010.99
2022-12-16T02:19:55.245Z,1010.98
2022-12-16T02:20:55.256Z,1010.96
2022-12-16T02:21:55.248Z,1010.98
2022-12-16T02:22:55.264Z,1010.95
2022-12-16T02:23:55.241Z,1010.93
2022-12-16T02:24:55.247Z,1010.94
2022-12-16T02:25:55.252Z,1010.92
2022-12-16T02:26:55.237Z,1010.92
2022-12-16T02:27:55.276Z,1010.83
2022-12-16T02:28:55.304Z,1010.89
2022-12-16T02:29:55.246Z,1010.89
2022-12-16T02:30:55.494Z,1010.89
2022-12-16T02:31:55.308Z,1010.83
2022-12-16T02:32:55.260Z,1010.84
2022-12-16T02:33:55.233Z,1010.79
2022-12-16T02:34:55.248Z,1010.8
2022-12-16T02:35:55.246Z,1010.74
2022-12-16T02:36:55.234Z,1010.77
2022-12-16T02:37:55.258Z,1010.74
2022-12-16T02:38:56.254Z,1010.78
2022-12-16T02:39:55.253Z,1010.71
2022-12-16T02:40:55.239Z,1010.74
2022-12-16T02:41:55.243Z,1010.75
2022-12-16T02:42:55.255Z,1010.71
2022-12-16T02:43:55.242Z,1010.71
2022-12-16T02:44:55.247Z,1010.7
2022-12-16T02:45:55.280Z,1010.63
2022-12-16T02:46:55.499Z,1010.65
2022-12-16T02:47:55.254Z,1010.66
2022-12-16T02:48:55.247Z,1010.68
2022-12-16T02:49:55.265Z,1010.65
2022-12-16T02:50:55.244Z,1010.68
2022-12-16T02:51:55.245Z,1010.66
2022-12-16T02:52:55.254Z,1010.67
2022-12-16T02:53:55.245Z,1010.65
2022-12-16T02:54:55.243Z,1010.65
2022-12-16T02:55:55.241Z,1010.67
2022-12-16T02:56:55.244Z,1010.63
2022-12-16T02:57:55.259Z,1010.64
2022-12-16T02:58:55.242Z,1010.6
2022-12-16T02:59:55.244Z,1010.56
2022-12-16T03:00:55.288Z,1010.56
2022-12-16T03:01:55.361Z,1010.63
2022-12-16T03:02:55.478Z,1010.62
2022-12-16T03:03:55.250Z,1010.6
2022-12-16T03:04:55.239Z,1010.65
2022-12-16T03:05:55.246Z,1010.59
2022-12-16T03:06:55.245Z,1010.64
2022-12-16T03:07:55.263Z,1010.61
2022-12-16T03:08:55.246Z,1010.61
2022-12-16T03:09:55.244Z,1010.63
2022-12-16T03:10:55.283Z,1010.65
2022-12-16T03:11:55.254Z,1010.62
2022-12-16T03:12:55.292Z,1010.59
2022-12-16T03:13:55.246Z,1010.57
2022-12-16T03:14:55.234Z,1010.6
2022-12-16T03:15:55.246Z,1010.58
2022-12-16T03:16:55.445Z,1010.56
2022-12-16T03:17:55.262Z,1010.61
2022-12-16T03:18:55.242Z,1010.6
2022-12-16T03:19:55.238Z,1010.6
2022-12-16T03:20:55.243Z,1010.61
2022-12-16T03:21:55.233Z,1010.58
2022-12-16T03:22:55.269Z,1010.54
2022-12-16T03:23:55.248Z,1010.56
2022-12-16T03:24:55.241Z,1010.56
2022-12-16T03:25:55.241Z,1010.52
2022-12-16T03:26:55.264Z,1010.5
2022-12-16T03:27:55.271Z,1010.45
2022-12-16T03:28:55.240Z,1010.41
2022-12-16T03:29:55.260Z,1010.45
2022-12-16T03:30:55.324Z,1010.45
2022-12-16T03:31:55.240Z,1010.46
2022-12-16T03:32:55.265Z,1010.43
2022-12-16T03:33:55.242Z,1010.48
2022-12-16T03:34:55.246Z,1010.5
2022-12-16T03:35:55.248Z,1010.49
2022-12-16T03:36:55.249Z,1010.49
2022-12-16T03:37:55.256Z,1010.49
2022-12-16T03:38:55.245Z,1010.5
2022-12-16T03:39:55.240Z,1010.49
2022-12-16T03:40:55.237Z,1010.43
2022-12-16T03:41:55.283Z,1010.46
2022-12-16T03:42:55.255Z,1010.5
2022-12-16T03:43:55.241Z,1010.44
2022-12-16T03:44:55.242Z,1010.48
2022-12-16T03:45:55.312Z,1010.45
2022-12-16T03:46:55.237Z,1010.47
2022-12-16T03:47:55.249Z,1010.46
2022-12-16T03:48:55.238Z,1010.46
2022-12-16T03:49:55.232Z,1010.46
2022-12-16T03:50:55.241Z,1010.45
2022-12-16T03:51:55.247Z,1010.45
2022-12-16T03:52:55.258Z,1010.41
2022-12-16T03:53:55.243Z,1010.35
2022-12-16T03:54:55.251Z,1010.4
2022-12-16T03:55:55.239Z,1010.39
2022-12-16T03:56:55.237Z,1010.36
2022-12-16T03:57:55.276Z,1010.35
2022-12-16T03:58:55.245Z,1010.36
2022-12-16T03:59:55.254Z,1010.38
2022-12-16T04:00:55.248Z,1010.38
2022-12-16T04:01:55.371Z,1010.42
2022-12-16T04:02:55.416Z,1010.45
2022-12-16T04:03:55.392Z,1010.46
2022-12-16T04:04:55.247Z,1010.49
2022-12-16T04:05:55.254Z,1010.5
2022-12-16T04:06:55.248Z,1010.5
2022-12-16T04:07:58.811Z,1010.52
2022-12-16T04:08:55.241Z,1010.52
2022-12-16T04:09:55.235Z,1010.57
2022-12-16T04:10:55.250Z,1010.58
2022-12-16T04:11:55.245Z,1010.63
2022-12-16T04:12:55.262Z,1010.58
2022-12-16T04:13:55.241Z,1010.6
2022-12-16T04:14:55.243Z,1010.65
2022-12-16T04:15:55.292Z,1010.63
2022-12-16T04:16:55.242Z,1010.63
2022-12-16T04:17:55.261Z,1010.6
2022-12-16T04:18:55.237Z,1010.61
2022-12-16T04:19:55.409Z,1010.61
2022-12-16T04:20:55.289Z,1010.59
2022-12-16T04:21:55.674Z,1010.6
2022-12-16T04:22:55.277Z,1010.63
2022-12-16T04:23:55.254Z,1010.62
2022-12-16T04:24:55.247Z,1010.62
2022-12-16T04:25:55.243Z,1010.61
2022-12-16T04:26:55.246Z,1010.62
2022-12-16T04:27:55.268Z,1010.67
2022-12-16T04:28:55.247Z,1010.65
2022-12-16T04:29:55.241Z,1010.62
2022-12-16T04:30:55.296Z,1010.62
2022-12-16T04:31:55.241Z,1010.63
2022-12-16T04:32:55.262Z,1010.67
2022-12-16T04:33:55.241Z,1010.67
2022-12-16T04:34:55.241Z,1010.62
2022-12-16T04:35:55.238Z,1010.54
2022-12-16T04:36:55.250Z,1010.57
2022-12-16T04:37:55.254Z,1010.48
2022-12-16T04:38:55.248Z,1010.51
2022-12-16T04:39:55.250Z,1010.48
2022-12-16T04:40:55.237Z,1010.51
2022-12-16T04:41:55.236Z,1010.56
2022-12-16T04:42:55.255Z,1010.52
2022-12-16T04:43:55.247Z,1010.58
2022-12-16T04:44:55.243Z,1010.58
2022-12-16T04:45:55.252Z,1010.58
2022-12-16T04:46:55.237Z,1010.56
2022-12-16T04:47:57.539Z,1010.56
2022-12-16T04:48:55.235Z,1010.51
2022-12-16T04:49:55.247Z,1010.57
2022-12-16T04:50:55.251Z,1010.6
2022-12-16T04:51:55.242Z,1010.63
2022-12-16T04:52:55.247Z,1010.66
2022-12-16T04:53:55.230Z,1010.66
2022-12-16T04:54:55.253Z,1010.7
2022-12-16T04:55:59.189Z,1010.7
2022-12-16T04:56:55.235Z,1010.71
2022-12-16T04:57:55.264Z,1010.74
2022-12-16T04:58:55.231Z,1010.77
2022-12-16T04:59:55.249Z,1010.83
2022-12-16T05:00:55.774Z,1010.83
2022-12-16T05:01:55.407Z,1010.94
2022-12-16T05:02:55.305Z,1010.96
2022-12-16T05:03:55.465Z,1010.96
2022-12-16T05:04:55.242Z,1010.97
2022-12-16T05:05:55.235Z,1010.96
2022-12-16T05:06:55.238Z,1010.99
2022-12-16T05:07:55.290Z,1011.01
2022-12-16T05:08:55.235Z,1011.01
2022-12-16T05:09:55.232Z,1011.03
2022-12-16T05:10:55.250Z,1011.03
2022-12-16T05:11:55.244Z,1011.11
2022-12-16T05:12:55.264Z,1011.08
2022-12-16T05:13:55.248Z,1011.04
2022-12-16T05:14:55.244Z,1011.02
2022-12-16T05:15:55.307Z,1011.03
2022-12-16T05:16:55.243Z,1011.06
2022-12-16T05:17:55.260Z,1010.99
2022-12-16T05:18:55.237Z,1011.02
2022-12-16T05:19:55.243Z,1011.04
2022-12-16T05:20:55.240Z,1011.04
2022-12-16T05:21:55.245Z,1011.01
2022-12-16T05:22:55.254Z,1011.03
2022-12-16T05:23:55.238Z,1011.03
2022-12-16T05:24:55.241Z,1011.04
2022-12-16T05:25:55.242Z,1011.09
2022-12-16T05:26:55.249Z,1011.09
2022-12-16T05:27:55.271Z,1011.11
2022-12-16T05:28:55.232Z,1011.1
2022-12-16T05:29:55.235Z,1011.1
2022-12-16T05:30:55.291Z,1011.1
2022-12-16T05:31:55.244Z,1011.08
2022-12-16T05:32:55.260Z,1011.08
2022-12-16T05:33:55.245Z,1011.04
2022-12-16T05:34:55.251Z,1011.04
2022-12-16T05:35:55.253Z,1011.04
2022-12-16T05:36:55.240Z,1010.99
2022-12-16T05:37:55.291Z,1011.01
2022-12-16T05:38:55.243Z,1011.03
2022-12-16T05:39:55.243Z,1011.01
2022-12-16T05:40:55.239Z,1011.01
2022-12-16T05:41:55.256Z,1010.97
2022-12-16T05:42:55.256Z,1010.96
2022-12-16T05:43:55.239Z,1010.99
2022-12-16T05:44:55.246Z,1010.99
2022-12-16T05:45:55.285Z,1010.96
2022-12-16T05:46:55.341Z,1010.97
2022-12-16T05:47:55.260Z,1011.01
2022-12-16T05:48:55.238Z,1011.01
2022-12-16T05:49:55.243Z,1010.93
2022-12-16T05:50:55.659Z,1010.97
2022-12-16T05:51:55.245Z,1010.96
2022-12-16T05:52:55.268Z,1010.93
2022-12-16T05:53:55.241Z,1010.94
2022-12-16T05:54:55.246Z,1010.86
2022-12-16T05:55:55.240Z,1010.89
2022-12-16T05:56:55.257Z,1010.89
2022-12-16T05:57:55.270Z,1010.88
2022-12-16T05:58:55.239Z,1010.86
2022-12-16T05:59:55.238Z,1010.87
2022-12-16T06:00:55.241Z,1010.91
2022-12-16T06:01:55.386Z,1010.94
2022-12-16T06:02:55.491Z,1010.9
2022-12-16T06:03:55.400Z,1010.89
2022-12-16T06:04:55.244Z,1010.95
2022-12-16T06:05:55.238Z,1010.95
2022-12-16T06:06:55.234Z,1010.91
2022-12-16T06:07:55.269Z,1010.94
2022-12-16T06:08:55.245Z,1010.95
2022-12-16T06:09:56.816Z,1010.95
2022-12-16T06:10:55.255Z,1010.99
2022-12-16T06:11:55.255Z,1011.01
2022-12-16T06:12:55.449Z,1011.1
2022-12-16T06:13:55.232Z,1011.13
2022-12-16T06:14:55.250Z,1011.11
2022-12-16T06:15:55.371Z,1011.13
2022-12-16T06:16:55.321Z,1011.17
2022-12-16T06:17:55.257Z,1011.17
2022-12-16T06:18:55.233Z,1011.19
2022-12-16T06:19:55.231Z,1011.2
2022-12-16T06:20:55.241Z,1011.2
2022-12-16T06:21:55.235Z,1011.26
2022-12-16T06:22:55.255Z,1011.28
2022-12-16T06:23:55.231Z,1011.29
2022-12-16T06:24:55.236Z,1011.28
2022-12-16T06:25:55.230Z,1011.28
2022-12-16T06:26:55.239Z,1011.25
2022-12-16T06:27:55.253Z,1011.28
2022-12-16T06:28:55.249Z,1011.26
2022-12-16T06:29:55.273Z,1011.25
2022-12-16T06:30:55.237Z,1011.32
2022-12-16T06:31:55.304Z,1011.31
2022-12-16T06:32:55.258Z,1011.31
2022-12-16T06:33:55.251Z,1011.3
2022-12-16T06:34:55.243Z,1011.33
2022-12-16T06:35:55.241Z,1011.33
2022-12-16T06:36:55.235Z,1011.34
2022-12-16T06:37:55.259Z,1011.4
2022-12-16T06:38:55.242Z,1011.42
2022-12-16T06:39:55.262Z,1011.43
2022-12-16T06:40:55.253Z,1011.49
2022-12-16T06:41:55.244Z,1011.47
2022-12-16T06:42:55.260Z,1011.45
2022-12-16T06:43:55.244Z,1011.44
2022-12-16T06:44:55.249Z,1011.43
2022-12-16T06:45:55.340Z,1011.48
2022-12-16T06:46:55.251Z,1011.51
2022-12-16T06:47:55.283Z,1011.54
2022-12-16T06:48:55.245Z,1011.49
2022-12-16T06:49:55.241Z,1011.48
2022-12-16T06:50:55.237Z,1011.51
2022-12-16T06:51:55.246Z,1011.45
2022-12-16T06:52:55.257Z,1011.44
2022-12-16T06:53:55.249Z,1011.39
2022-12-16T06:54:55.244Z,1011.38
2022-12-16T06:55:55.248Z,1011.32
2022-12-16T06:56:55.253Z,1011.32
2022-12-16T06:57:55.267Z,1011.33
2022-12-16T06:58:55.255Z,1011.37
2022-12-16T06:59:55.240Z,1011.39
2022-12-16T07:00:55.338Z,1011.45
2022-12-16T07:01:55.303Z,1011.48
2022-12-16T07:02:55.359Z,1011.55
2022-12-16T07:03:55.243Z,1011.59
2022-12-16T07:04:55.247Z,1011.62
2022-12-16T07:05:55.242Z,1011.57
2022-12-16T07:06:55.240Z,1011.66
2022-12-16T07:07:55.254Z,1011.64
2022-12-16T07:08:55.247Z,1011.64
2022-12-16T07:09:55.246Z,1011.67
2022-12-16T07:10:57.982Z,1011.7
2022-12-16T07:11:55.256Z,1011.68
2022-12-16T07:12:55.442Z,1011.68
2022-12-16T07:13:55.241Z,1011.72
2022-12-16T07:14:55.248Z,1011.72
2022-12-16T07:15:55.283Z,1011.76
2022-12-16T07:16:55.347Z,1011.74
2022-12-16T07:17:55.277Z,1011.74
2022-12-16T07:18:55.239Z,1011.73
2022-12-16T07:19:55.243Z,1011.79
2022-12-16T07:20:55.246Z,1011.74
2022-12-16T07:21:55.270Z,1011.68
2022-12-16T07:23:03.764Z,1011.65
2022-12-16T07:23:55.235Z,1011.61
2022-12-16T07:24:55.251Z,1011.6
2022-12-16T07:25:55.249Z,1011.61
2022-12-16T07:26:55.248Z,1011.67
2022-12-16T07:27:55.259Z,1011.7
2022-12-16T07:28:55.272Z,1011.75
2022-12-16T07:29:55.243Z,1011.76
2022-12-16T07:30:55.248Z,1011.79
2022-12-16T07:31:55.329Z,1011.78
2022-12-16T07:32:55.258Z,1011.83
2022-12-16T07:33:55.246Z,1011.81
2022-12-16T07:34:55.250Z,1011.85
2022-12-16T07:35:55.236Z,1011.89
2022-12-16T07:36:55.253Z,1011.96
2022-12-16T07:37:55.294Z,1011.98
2022-12-16T07:38:55.233Z,1011.95
2022-12-16T07:39:55.615Z,1012.05
2022-12-16T07:40:55.244Z,1012.05
2022-12-16T07:41:55.248Z,1012.1
2022-12-16T07:42:55.262Z,1012.12
2022-12-16T07:43:55.242Z,1012.12
2022-12-16T07:44:55.241Z,1012.17
2022-12-16T07:45:55.304Z,1012.19
2022-12-16T07:46:55.245Z,1012.2
2022-12-16T07:47:55.420Z,1012.21
2022-12-16T07:48:55.247Z,1012.18
2022-12-16T07:49:55.291Z,1012.22
2022-12-16T07:50:55.249Z,1012.19
2022-12-16T07:51:55.240Z,1012.17
2022-12-16T07:52:55.462Z,1012.19
2022-12-16T07:53:55.251Z,1012.21
2022-12-16T07:54:55.247Z,1012.22
2022-12-16T07:55:55.244Z,1012.19
2022-12-16T07:56:55.244Z,1012.21
2022-12-16T07:57:55.265Z,1012.21
2022-12-16T07:58:55.442Z,1012.23
2022-12-16T07:59:55.256Z,1012.25
2022-12-16T08:00:55.267Z,1012.3
2022-12-16T08:01:55.465Z,1012.29
2022-12-16T08:02:55.388Z,1012.29
2022-12-16T08:03:55.338Z,1012.34
2022-12-16T08:04:55.230Z,1012.38
2022-12-16T08:05:55.244Z,1012.37
2022-12-16T08:06:55.257Z,1012.36
2022-12-16T08:07:55.266Z,1012.42
2022-12-16T08:08:55.284Z,1012.42
2022-12-16T08:09:55.270Z,1012.43
2022-12-16T08:10:55.447Z,1012.4
2022-12-16T08:11:55.239Z,1012.4
2022-12-16T08:12:55.263Z,1012.47
2022-12-16T08:13:55.245Z,1012.44
2022-12-16T08:14:55.242Z,1012.49
2022-12-16T08:15:55.239Z,1012.53
2022-12-16T08:16:55.239Z,1012.51
2022-12-16T08:17:55.263Z,1012.5
2022-12-16T08:18:55.246Z,1012.56
2022-12-16T08:19:55.245Z,1012.59
2022-12-16T08:20:55.283Z,1012.57
2022-12-16T08:21:55.253Z,1012.58
2022-12-16T08:22:55.262Z,1012.58
2022-12-16T08:23:55.237Z,1012.56
2022-12-16T08:24:56.085Z,1012.58
2022-12-16T08:25:55.404Z,1012.57
2022-12-16T08:26:55.246Z,1012.6
2022-12-16T08:27:55.246Z,1012.6
2022-12-16T08:28:55.263Z,1012.65
2022-12-16T08:29:55.238Z,1012.61
2022-12-16T08:30:55.321Z,1012.6
2022-12-16T08:31:55.239Z,1012.61
2022-12-16T08:32:59.334Z,1012.65
2022-12-16T08:33:55.253Z,1012.67
2022-12-16T08:34:55.265Z,1012.69
2022-12-16T08:35:55.243Z,1012.78
2022-12-16T08:36:55.231Z,1012.75
2022-12-16T08:37:55.293Z,1012.73
2022-12-16T08:38:55.242Z,1012.81
2022-12-16T08:40:18.001Z,1012.88
2022-12-16T08:40:55.235Z,1012.88
2022-12-16T08:41:55.233Z,1012.76
2022-12-16T08:42:55.272Z,1012.76
2022-12-16T08:43:55.243Z,1012.79
2022-12-16T08:44:55.235Z,1012.75
2022-12-16T08:45:55.365Z,1012.77
2022-12-16T08:46:55.254Z,1012.76
2022-12-16T08:47:55.246Z,1012.83
2022-12-16T08:48:55.239Z,1012.85
2022-12-16T08:49:57.814Z,1012.87
2022-12-16T08:50:55.230Z,1012.83
2022-12-16T08:51:55.242Z,1012.83
2022-12-16T08:52:55.350Z,1012.84
2022-12-16T08:53:55.242Z,1012.84
2022-12-16T08:54:55.238Z,1012.88
2022-12-16T08:55:55.771Z,1012.84
2022-12-16T08:56:55.244Z,1012.84
2022-12-16T08:57:55.268Z,1012.82
2022-12-16T08:58:55.243Z,1012.81
2022-12-16T08:59:55.242Z,1012.83
2022-12-16T09:00:55.347Z,1012.81
2022-12-16T09:01:55.469Z,1012.79
2022-12-16T09:02:55.581Z,1012.79
2022-12-16T09:03:55.426Z,1012.74
2022-12-16T09:04:55.528Z,1012.75
2022-12-16T09:05:55.789Z,1012.75
2022-12-16T09:06:55.235Z,1012.81
2022-12-16T09:07:55.247Z,1012.79
2022-12-16T09:08:55.236Z,1012.79
2022-12-16T09:09:55.237Z,1012.83
2022-12-16T09:10:55.679Z,1012.82
2022-12-16T09:11:55.242Z,1012.88
2022-12-16T09:12:55.275Z,1012.88
2022-12-16T09:13:55.240Z,1012.85
2022-12-16T09:14:55.319Z,1012.89
2022-12-16T09:15:55.647Z,1012.84
2022-12-16T09:16:55.240Z,1012.87
2022-12-16T09:17:55.260Z,1012.91
2022-12-16T09:18:55.242Z,1012.89
2022-12-16T09:19:55.482Z,1012.84
2022-12-16T09:20:55.611Z,1012.85
2022-12-16T09:21:55.241Z,1012.9
2022-12-16T09:22:55.258Z,1012.91
2022-12-16T09:23:55.245Z,1012.94
2022-12-16T09:24:56.020Z,1012.95
2022-12-16T09:25:55.761Z,1012.98
2022-12-16T09:26:55.266Z,1013.01
2022-12-16T09:27:55.263Z,1012.98
2022-12-16T09:28:55.248Z,1012.96
2022-12-16T09:29:55.240Z,1012.92
2022-12-16T09:30:55.744Z,1012.97
2022-12-16T09:31:55.230Z,1013.02
2022-12-16T09:32:55.259Z,1013.08
2022-12-16T09:33:55.245Z,1013.04
2022-12-16T09:34:55.241Z,1013.01
2022-12-16T09:35:55.663Z,1013.04
2022-12-16T09:36:55.253Z,1013.07
2022-12-16T09:37:55.378Z,1013.02
2022-12-16T09:38:55.241Z,1013.06
2022-12-16T09:39:55.244Z,1013.07
2022-12-16T09:40:55.361Z,1013.1
2022-12-16T09:41:55.556Z,1013.1
2022-12-16T09:42:55.535Z,1013.19
2022-12-16T09:43:55.252Z,1013.19
2022-12-16T09:44:55.238Z,1013.19
2022-12-16T09:45:55.761Z,1013.16
2022-12-16T09:46:55.283Z,1013.15
2022-12-16T09:47:55.251Z,1013.21
2022-12-16T09:48:55.239Z,1013.21
2022-12-16T09:49:55.295Z,1013.17
2022-12-16T09:50:55.607Z,1013.18
2022-12-16T09:51:55.237Z,1013.17
2022-12-16T09:52:55.267Z,1013.16
2022-12-16T09:53:55.407Z,1013.17
2022-12-16T09:54:55.244Z,1013.16
2022-12-16T09:55:55.767Z,1013.16
2022-12-16T09:56:55.508Z,1013.15
2022-12-16T09:57:55.533Z,1013.19
2022-12-16T09:58:55.243Z,1013.18
2022-12-16T09:59:55.274Z,1013.19
2022-12-16T10:00:55.806Z,1013.21
2022-12-16T10:01:55.700Z,1013.17
2022-12-16T10:02:55.419Z,1013.19
2022-12-16T10:03:55.392Z,1013.19
2022-12-16T10:04:55.243Z,1013.15
2022-12-16T10:05:55.995Z,1013.16
2022-12-16T10:06:55.927Z,1013.16
2022-12-16T10:07:55.260Z,1013.14
2022-12-16T10:08:55.240Z,1013.14
2022-12-16T10:09:55.242Z,1013.11
2022-12-16T10:10:55.628Z,1013.14
2022-12-16T10:11:55.242Z,1013.13
2022-12-16T10:12:55.271Z,1013.14
2022-12-16T10:13:55.244Z,1013.16
2022-12-16T10:14:55.234Z,1013.13
2022-12-16T10:15:55.970Z,1013.12
2022-12-16T10:16:55.248Z,1013.08
2022-12-16T10:17:55.267Z,1013.1
2022-12-16T10:18:55.478Z,1013.06
2022-12-16T10:19:55.246Z,1013.11
2022-12-16T10:20:55.260Z,1013.1
2022-12-16T10:21:55.249Z,1013.04
2022-12-16T10:22:55.260Z,1013.04
2022-12-16T10:23:55.265Z,1013.03
2022-12-16T10:24:55.240Z,1013.03
2022-12-16T10:25:55.486Z,1013.03
2022-12-16T10:26:55.245Z,1013.05
2022-12-16T10:27:55.271Z,1013.05
2022-12-16T10:28:55.495Z,1013.04
2022-12-16T10:29:55.242Z,1013.03
2022-12-16T10:30:55.371Z,1013.06
2022-12-16T10:31:55.242Z,1013.03
2022-12-16T10:32:55.266Z,1013.03
2022-12-16T10:33:55.235Z,1013.04
2022-12-16T10:34:55.239Z,1013.07
2022-12-16T10:35:55.570Z,1013.06
2022-12-16T10:36:55.246Z,1013.02
2022-12-16T10:37:55.257Z,1013
2022-12-16T10:38:55.245Z,1013.07
2022-12-16T10:39:55.261Z,1013.07
2022-12-16T10:40:55.571Z,1013.06
2022-12-16T10:41:55.984Z,1013.04
2022-12-16T10:42:55.441Z,1013.01
2022-12-16T10:43:55.470Z,1013.02
2022-12-16T10:44:55.707Z,1012.99
2022-12-16T10:45:55.330Z,1013.04
2022-12-16T10:46:55.388Z,1013.03
2022-12-16T10:47:55.341Z,1013.1
2022-12-16T10:48:56.595Z,1013.1
2022-12-16T10:49:55.344Z,1013.08
2022-12-16T10:50:55.258Z,1013.17
2022-12-16T10:51:55.236Z,1013.18
2022-12-16T10:52:55.318Z,1013.19
2022-12-16T10:53:55.331Z,1013.23
2022-12-16T10:54:55.234Z,1013.26
2022-12-16T10:55:55.242Z,1013.24
2022-12-16T10:56:55.252Z,1013.3
2022-12-16T10:57:55.246Z,1013.23
2022-12-16T10:58:55.286Z,1013.27
2022-12-16T10:59:55.235Z,1013.26
2022-12-16T11:00:56.247Z,1013.25
2022-12-16T11:01:55.236Z,1013.24
2022-12-16T11:02:55.490Z,1013.22
2022-12-16T11:03:55.311Z,1013.22
2022-12-16T11:04:55.775Z,1013.21
2022-12-16T11:05:55.277Z,1013.17
2022-12-16T11:06:55.325Z,1013.16
2022-12-16T11:07:55.261Z,1013.19
2022-12-16T11:08:55.713Z,1013.19
2022-12-16T11:09:55.251Z,1013.17
2022-12-16T11:10:56.075Z,1013.21
2022-12-16T11:11:55.626Z,1013.2
2022-12-16T11:12:55.270Z,1013.21
2022-12-16T11:13:55.246Z,1013.21
2022-12-16T11:15:20.432Z,1013.21
2022-12-16T11:15:55.533Z,1013.21
2022-12-16T11:16:55.245Z,1013.21
2022-12-16T11:17:56.002Z,1013.24
2022-12-16T11:18:55.263Z,1013.19
2022-12-16T11:19:55.247Z,1013.18
2022-12-16T11:20:55.248Z,1013.2
2022-12-16T11:21:55.250Z,1013.19
2022-12-16T11:22:55.256Z,1013.18
2022-12-16T11:23:55.248Z,1013.16
2022-12-16T11:24:55.237Z,1013.17
2022-12-16T11:25:55.244Z,1013.19
2022-12-16T11:26:55.238Z,1013.16
2022-12-16T11:27:55.254Z,1013.22
2022-12-16T11:28:55.247Z,1013.21
2022-12-16T11:29:55.241Z,1013.18
2022-12-16T11:30:55.364Z,1013.19
2022-12-16T11:31:59.503Z,1013.19
2022-12-16T11:32:55.263Z,1013.22
2022-12-16T11:33:55.245Z,1013.25
2022-12-16T11:34:55.244Z,1013.24
2022-12-16T11:35:55.275Z,1013.24
2022-12-16T11:36:55.240Z,1013.31
2022-12-16T11:37:55.262Z,1013.34
2022-12-16T11:38:55.238Z,1013.37
2022-12-16T11:39:55.246Z,1013.42
2022-12-16T11:40:55.246Z,1013.46
2022-12-16T11:41:55.238Z,1013.49
2022-12-16T11:42:55.267Z,1013.53
2022-12-16T11:43:55.253Z,1013.54
2022-12-16T11:44:55.246Z,1013.58
2022-12-16T11:45:55.241Z,1013.59
2022-12-16T11:46:55.874Z,1013.58
2022-12-16T11:47:55.377Z,1013.61
2022-12-16T11:48:55.242Z,1013.64
2022-12-16T11:49:55.240Z,1013.67
2022-12-16T11:50:55.423Z,1013.7
2022-12-16T11:52:08.227Z,1013.69
2022-12-16T11:52:55.250Z,1013.7
2022-12-16T11:53:55.241Z,1013.68
2022-12-16T11:54:55.243Z,1013.69
2022-12-16T11:56:06.612Z,1013.74
2022-12-16T11:56:55.300Z,1013.74
2022-12-16T11:57:55.259Z,1013.75
2022-12-16T11:58:55.407Z,1013.81
2022-12-16T11:59:55.466Z,1013.81
2022-12-16T12:00:55.243Z,1013.86
2022-12-16T12:01:55.612Z,1013.86
2022-12-16T12:02:55.759Z,1013.81
2022-12-16T12:03:55.395Z,1013.81
2022-12-16T12:04:55.237Z,1013.85
2022-12-16T12:05:55.243Z,1013.87
2022-12-16T12:06:55.230Z,1013.87
2022-12-16T12:07:55.590Z,1013.98